createdAt,value
2023-03-06T00:01:10.158Z,92.93
2023-03-06T00:03:40.208Z,92.96
2023-03-06T00:06:11.153Z,92.45
2023-03-06T00:08:40.358Z,92.72
2023-03-06T00:11:08.351Z,92.69
2023-03-06T00:13:37.330Z,93.22
2023-03-06T00:16:07.022Z,93.18
2023-03-06T00:18:35.866Z,93.50
2023-03-06T00:21:08.636Z,94.02
2023-03-06T00:23:36.981Z,93.84
2023-03-06T00:26:08.358Z,94.19
2023-03-06T00:28:37.083Z,94.30
2023-03-06T00:31:05.502Z,94.57
2023-03-06T00:33:34.475Z,95.13
2023-03-06T00:36:07.149Z,95.16
2023-03-06T00:38:36.108Z,95.33
2023-03-06T00:41:08.915Z,95.52
2023-03-06T00:43:37.720Z,95.66
2023-03-06T00:46:06.745Z,95.83
2023-03-06T00:48:34.848Z,95.84
2023-03-06T00:51:03.272Z,96.27
2023-03-06T00:53:32.612Z,96.62
2023-03-06T00:56:00.535Z,96.50
2023-03-06T00:58:29.485Z,96.43
2023-03-06T01:00:57.830Z,96.83
2023-03-06T01:03:26.262Z,96.96
2023-03-06T01:05:54.652Z,97.15
2023-03-06T01:08:22.689Z,97.36
2023-03-06T01:10:52.580Z,97.36
2023-03-06T01:13:20.382Z,97.28
2023-03-06T01:15:48.348Z,97.33
2023-03-06T01:18:17.263Z,97.34
2023-03-06T01:20:45.213Z,97.34
2023-03-06T01:23:13.649Z,97.31
2023-03-06T01:25:42.480Z,97.46
2023-03-06T01:28:11.758Z,97.48
2023-03-06T01:30:40.617Z,97.32
2023-03-06T01:33:08.521Z,97.47
2023-03-06T01:35:39.554Z,97.52
2023-03-06T01:38:07.564Z,97.62
2023-03-06T01:40:38.845Z,97.52
2023-03-06T01:43:13.594Z,97.61
2023-03-06T01:46:21.752Z,97.70
2023-03-06T01:48:56.120Z,97.67
2023-03-06T01:51:28.352Z,97.82
2023-03-06T01:53:59.257Z,97.81
2023-03-06T01:56:27.716Z,97.96
2023-03-06T01:58:58.158Z,97.98
2023-03-06T02:01:27.553Z,98.19
2023-03-06T02:03:56.715Z,98.01
2023-03-06T02:06:25.136Z,97.99
2023-03-06T02:08:55.704Z,98.32
2023-03-06T02:11:25.809Z,98.19
2023-03-06T02:13:57.148Z,98.36
2023-03-06T02:16:28.853Z,98.31
2023-03-06T02:18:59.937Z,98.40
2023-03-06T02:21:32.607Z,98.73
2023-03-06T02:24:10.299Z,98.55
2023-03-06T02:26:43.413Z,98.16
2023-03-06T02:29:13.335Z,98.91
2023-03-06T02:31:41.512Z,98.45
2023-03-06T02:34:51.645Z,98.27
2023-03-06T02:37:19.677Z,98.74
2023-03-06T02:39:51.286Z,98.83
2023-03-06T02:42:23.106Z,98.44
2023-03-06T02:44:53.935Z,98.28
2023-03-06T02:47:22.795Z,97.89
2023-03-06T02:49:51.625Z,97.91
2023-03-06T02:52:19.681Z,97.70
2023-03-06T02:54:48.055Z,97.65
2023-03-06T02:57:17.205Z,97.68
2023-03-06T02:59:47.420Z,98.02
2023-03-06T03:02:17.261Z,98.24
2023-03-06T03:04:45.817Z,98.29
2023-03-06T03:07:13.814Z,98.32
2023-03-06T03:09:44.977Z,98.70
2023-03-06T03:12:14.558Z,98.67
2023-03-06T03:14:42.974Z,99.20
2023-03-06T03:17:12.680Z,99.50
2023-03-06T03:19:40.806Z,99.37
2023-03-06T03:22:09.365Z,99.99
2023-03-06T03:24:37.350Z,99.99
2023-03-06T03:27:05.668Z,99.99
2023-03-06T03:29:34.685Z,99.99
2023-03-06T03:32:02.652Z,99.99
2023-03-06T03:34:32.712Z,99.99
2023-03-06T03:37:01.269Z,99.99
2023-03-06T03:39:29.362Z,99.99
2023-03-06T03:41:58.491Z,99.99
2023-03-06T03:44:27.498Z,99.99
2023-03-06T03:46:56.183Z,99.99
2023-03-06T03:49:26.355Z,99.99
2023-03-06T03:51:56.404Z,99.99
2023-03-06T03:54:27.158Z,99.99
2023-03-06T03:56:55.799Z,99.99
2023-03-06T03:59:31.702Z,99.99
2023-03-06T04:02:13.103Z,99.99
2023-03-06T04:04:50.656Z,99.99
2023-03-06T04:07:20.171Z,99.99
2023-03-06T04:09:49.150Z,99.99
2023-03-06T04:12:19.129Z,99.99
2023-03-06T04:14:48.030Z,99.99
2023-03-06T04:17:16.182Z,99.99
2023-03-06T04:19:46.086Z,99.99
2023-03-06T04:22:14.011Z,99.99
2023-03-06T04:24:44.607Z,99.99
2023-03-06T04:27:13.464Z,99.99
2023-03-06T04:29:41.559Z,99.99
2023-03-06T04:32:10.338Z,99.99
2023-03-06T04:34:39.080Z,99.99
2023-03-06T04:37:07.757Z,99.99
2023-03-06T04:39:36.135Z,99.99
2023-03-06T04:42:05.870Z,99.99
2023-03-06T04:44:33.768Z,99.99
2023-03-06T04:47:02.686Z,99.99
2023-03-06T04:49:30.588Z,99.99
2023-03-06T04:51:59.120Z,99.99
2023-03-06T04:54:27.649Z,99.99
2023-03-06T04:56:55.621Z,99.99
2023-03-06T04:59:25.390Z,99.99
2023-03-06T05:01:54.312Z,99.99
2023-03-06T05:04:22.290Z,99.99
2023-03-06T05:06:51.285Z,99.99
2023-03-06T05:09:19.632Z,99.99
2023-03-06T05:11:48.024Z,99.99
2023-03-06T05:14:16.355Z,99.99
2023-03-06T05:16:45.724Z,99.99
2023-03-06T05:19:14.596Z,99.99
2023-03-06T05:21:42.534Z,99.99
2023-03-06T05:24:11.093Z,99.99
2023-03-06T05:26:39.626Z,99.99
2023-03-06T05:29:07.773Z,99.99
2023-03-06T05:31:35.696Z,99.99
2023-03-06T05:34:05.979Z,99.99
2023-03-06T05:36:33.881Z,99.99
2023-03-06T05:39:02.984Z,99.99
2023-03-06T05:41:30.958Z,99.99
2023-03-06T05:43:59.587Z,99.99
2023-03-06T05:46:28.152Z,99.99
2023-03-06T05:48:57.534Z,99.99
2023-03-06T05:51:28.154Z,99.99
2023-03-06T05:53:56.131Z,99.99
2023-03-06T05:56:24.080Z,99.99
2023-03-06T05:58:52.919Z,99.99
2023-03-06T06:01:21.853Z,99.99
2023-03-06T06:03:50.328Z,99.99
2023-03-06T06:06:19.316Z,99.99
2023-03-06T06:08:48.666Z,99.99
2023-03-06T06:11:18.468Z,99.99
2023-03-06T06:13:47.284Z,99.99
2023-03-06T06:16:16.836Z,99.99
2023-03-06T06:18:45.050Z,99.99
2023-03-06T06:21:16.441Z,99.99
2023-03-06T06:23:44.612Z,99.91
2023-03-06T06:26:13.858Z,99.57
2023-03-06T06:28:42.697Z,99.99
2023-03-06T06:31:12.228Z,99.87
2023-03-06T06:33:41.455Z,99.65
2023-03-06T06:36:17.464Z,99.56
2023-03-06T06:38:45.591Z,99.33
2023-03-06T06:44:08.531Z,98.87
2023-03-06T06:49:26.221Z,99.70
2023-03-06T06:51:54.586Z,99.06
2023-03-06T06:54:22.488Z,99.06
2023-03-06T06:56:51.801Z,98.95
2023-03-06T06:59:24.050Z,98.29
2023-03-06T07:01:52.804Z,98.40
2023-03-06T07:04:21.023Z,98.04
2023-03-06T07:06:49.845Z,97.76
2023-03-06T07:09:18.172Z,97.85
2023-03-06T07:11:46.132Z,97.95
2023-03-06T07:14:15.956Z,97.58
2023-03-06T07:16:44.123Z,97.16
2023-03-06T07:19:12.030Z,97.41
2023-03-06T07:21:40.871Z,97.70
2023-03-06T07:24:09.014Z,97.99
2023-03-06T07:26:37.861Z,98.14
2023-03-06T07:29:06.171Z,97.81
2023-03-06T07:31:35.966Z,98.20
2023-03-06T07:34:05.132Z,98.33
2023-03-06T07:36:33.520Z,98.11
2023-03-06T07:39:02.404Z,98.42
2023-03-06T07:41:30.354Z,98.41
2023-03-06T07:43:59.262Z,98.84
2023-03-06T07:46:27.535Z,98.82
2023-03-06T07:48:58.211Z,98.83
2023-03-06T07:51:29.626Z,98.98
2023-03-06T07:53:57.450Z,99.41
2023-03-06T07:56:25.772Z,99.36
2023-03-06T07:58:55.363Z,99.47
2023-03-06T08:01:25.005Z,99.54
2023-03-06T08:03:53.367Z,99.99
2023-03-06T08:06:25.277Z,99.99
2023-03-06T08:08:55.408Z,99.96
2023-03-06T08:11:25.901Z,99.82
2023-03-06T08:13:54.533Z,99.99
2023-03-06T08:16:23.423Z,99.99
2023-03-06T08:18:52.618Z,99.99
2023-03-06T08:21:25.189Z,99.99
2023-03-06T08:23:53.743Z,99.99
2023-03-06T08:26:23.822Z,99.99
2023-03-06T08:28:52.791Z,99.99
2023-03-06T08:31:30.112Z,99.99
2023-03-06T08:34:00.902Z,99.99
2023-03-06T08:36:30.548Z,99.99
2023-03-06T08:38:59.542Z,99.99
2023-03-06T08:41:28.222Z,99.99
2023-03-06T08:43:56.281Z,99.99
2023-03-06T08:46:27.152Z,99.99
2023-03-06T08:48:56.494Z,99.99
2023-03-06T08:51:25.322Z,99.99
2023-03-06T08:53:55.801Z,99.99
2023-03-06T08:56:25.276Z,99.99
2023-03-06T08:58:54.747Z,99.99
2023-03-06T09:01:24.874Z,99.99
2023-03-06T09:03:58.225Z,99.99
2023-03-06T09:06:27.360Z,99.99
2023-03-06T09:08:57.010Z,99.99
2023-03-06T09:11:27.059Z,99.99
2023-03-06T09:13:56.277Z,99.99
2023-03-06T09:16:26.213Z,99.60
2023-03-06T09:18:54.382Z,99.99
2023-03-06T09:21:25.363Z,99.92
2023-03-06T09:23:53.449Z,99.99
2023-03-06T09:26:28.001Z,99.99
2023-03-06T09:29:01.894Z,99.99
2023-03-06T09:31:31.689Z,99.99
2023-03-06T09:34:00.160Z,99.99
2023-03-06T09:36:31.409Z,99.99
2023-03-06T09:38:59.748Z,99.99
2023-03-06T09:41:34.187Z,99.99
2023-03-06T09:44:06.073Z,99.99
2023-03-06T09:46:47.776Z,99.99
2023-03-06T09:49:39.404Z,99.99
2023-03-06T09:52:22.915Z,99.99
2023-03-06T09:54:55.572Z,99.99
2023-03-06T09:57:29.198Z,99.99
2023-03-06T09:59:58.967Z,99.99
2023-03-06T10:02:34.861Z,99.99
2023-03-06T10:05:07.243Z,99.99
2023-03-06T10:07:46.086Z,99.99
2023-03-06T10:10:21.051Z,99.99
2023-03-06T10:13:04.479Z,99.53
2023-03-06T10:15:36.496Z,99.99
2023-03-06T10:18:06.334Z,99.99
2023-03-06T10:20:38.899Z,99.99
2023-03-06T10:23:22.070Z,99.99
2023-03-06T10:25:59.321Z,99.99
2023-03-06T10:28:33.282Z,99.11
2023-03-06T10:31:08.915Z,99.37
2023-03-06T10:33:48.736Z,99.40
2023-03-06T10:36:19.404Z,98.92
2023-03-06T10:38:49.007Z,99.03
2023-03-06T10:41:28.735Z,99.50
2023-03-06T10:44:23.513Z,98.55
2023-03-06T10:46:54.884Z,97.69
2023-03-06T10:49:35.023Z,95.07
2023-03-06T10:52:07.226Z,94.33
2023-03-06T10:54:36.787Z,94.07
2023-03-06T10:57:23.480Z,93.22
2023-03-06T10:59:54.872Z,92.18
2023-03-06T11:02:30.475Z,91.48
2023-03-06T11:05:01.188Z,91.20
2023-03-06T11:07:31.709Z,90.00
2023-03-06T11:10:05.598Z,90.81
2023-03-06T11:13:00.147Z,90.12
2023-03-06T11:15:30.442Z,89.66
2023-03-06T11:18:01.867Z,91.04
2023-03-06T11:20:48.888Z,90.80
2023-03-06T11:23:22.906Z,91.04
2023-03-06T11:25:57.681Z,90.42
2023-03-06T11:28:31.390Z,89.39
2023-03-06T11:31:24.044Z,88.06
2023-03-06T11:33:56.109Z,87.93
2023-03-06T11:36:30.826Z,87.05
2023-03-06T11:38:58.778Z,87.93
2023-03-06T11:41:35.136Z,87.18
2023-03-06T11:44:13.625Z,88.68
2023-03-06T11:46:49.061Z,91.33
2023-03-06T11:49:24.014Z,93.93
2023-03-06T11:51:56.814Z,96.28
2023-03-06T11:54:24.971Z,97.67
2023-03-06T11:56:59.405Z,98.93
2023-03-06T11:59:59.737Z,99.99
2023-03-06T12:02:43.490Z,99.72
2023-03-06T12:05:29.277Z,99.99
2023-03-06T12:08:09.527Z,99.99
2023-03-06T12:10:42.745Z,99.51
2023-03-06T12:13:37.345Z,99.87
2023-03-06T12:16:24.750Z,97.84
2023-03-06T12:19:06.308Z,96.45
2023-03-06T12:21:46.223Z,95.29
2023-03-06T12:24:31.923Z,94.94
2023-03-06T12:27:10.658Z,93.47
2023-03-06T12:29:50.418Z,92.80
2023-03-06T12:32:35.596Z,91.97
2023-03-06T12:35:20.011Z,91.99
2023-03-06T12:38:00.303Z,92.43
2023-03-06T12:41:00.256Z,91.18
2023-03-06T12:43:45.435Z,88.30
2023-03-06T12:46:16.319Z,87.52
2023-03-06T12:48:50.261Z,86.17
2023-03-06T12:51:22.058Z,87.10
2023-03-06T12:53:52.594Z,88.67
2023-03-06T12:56:21.864Z,88.64
2023-03-06T12:58:52.851Z,87.57
2023-03-06T13:02:01.869Z,87.42
2023-03-06T13:04:36.958Z,86.82
2023-03-06T13:07:20.239Z,84.11
2023-03-06T13:10:02.043Z,83.08
2023-03-06T13:12:55.732Z,83.21
2023-03-06T13:16:05.786Z,82.48
2023-03-06T13:19:11.974Z,80.41
2023-03-06T13:22:03.529Z,82.77
2023-03-06T13:24:37.169Z,84.87
2023-03-06T13:27:11.618Z,79.50
2023-03-06T13:29:51.514Z,75.78
2023-03-06T13:32:29.340Z,76.78
2023-03-06T13:34:57.550Z,73.55
2023-03-06T13:37:39.124Z,76.82
2023-03-06T13:40:27.414Z,72.13
2023-03-06T13:43:23.291Z,69.08
2023-03-06T13:45:51.710Z,70.25
2023-03-06T13:48:43.664Z,72.20
2023-03-06T13:51:25.099Z,74.34
2023-03-06T13:54:23.106Z,76.10
2023-03-06T13:57:28.087Z,77.62
2023-03-06T14:00:24.776Z,75.58
2023-03-06T14:03:20.685Z,75.67
2023-03-06T14:05:51.112Z,75.02
2023-03-06T14:08:19.898Z,73.86
2023-03-06T14:10:56.958Z,74.99
2023-03-06T14:13:38.407Z,76.01
2023-03-06T14:16:21.427Z,75.83
2023-03-06T14:18:51.634Z,70.26
2023-03-06T14:21:28.259Z,66.43
2023-03-06T14:24:00.647Z,60.02
2023-03-06T14:26:33.336Z,59.02
2023-03-06T14:29:04.089Z,59.32
2023-03-06T14:31:35.336Z,65.28
2023-03-06T14:34:05.220Z,59.14
2023-03-06T14:36:37.115Z,62.44
2023-03-06T14:39:11.884Z,60.91
2023-03-06T14:41:41.270Z,60.58
2023-03-06T14:44:18.012Z,64.77
2023-03-06T14:46:47.501Z,63.66
2023-03-06T14:49:16.614Z,60.60
2023-03-06T14:51:48.176Z,61.46
2023-03-06T14:54:20.040Z,63.58
2023-03-06T14:56:50.744Z,65.13
2023-03-06T14:59:26.287Z,63.17
2023-03-06T15:01:59.515Z,61.83
2023-03-06T15:04:37.139Z,63.73
2023-03-06T15:07:10.445Z,66.42
2023-03-06T15:09:40.802Z,66.06
2023-03-06T15:12:36.241Z,68.37
2023-03-06T15:15:26.825Z,69.14
2023-03-06T15:17:54.886Z,69.92
2023-03-06T15:20:42.933Z,69.53
2023-03-06T15:23:22.208Z,70.61
2023-03-06T15:25:54.340Z,72.59
2023-03-06T15:28:32.472Z,74.02
2023-03-06T15:31:21.004Z,75.40
2023-03-06T15:34:23.451Z,74.52
2023-03-06T15:36:55.808Z,75.03
2023-03-06T15:39:39.067Z,76.12
2023-03-06T15:42:19.840Z,75.84
2023-03-06T15:44:49.861Z,74.40
2023-03-06T15:47:20.342Z,74.12
2023-03-06T15:49:51.996Z,75.02
2023-03-06T15:52:21.174Z,75.24
2023-03-06T15:54:49.488Z,76.79
2023-03-06T15:57:23.184Z,76.19
2023-03-06T15:59:52.811Z,75.86
2023-03-06T16:02:24.214Z,77.21
2023-03-06T16:04:53.315Z,77.47
2023-03-06T16:07:21.614Z,77.45
2023-03-06T16:09:50.027Z,76.99
2023-03-06T16:12:20.376Z,77.84
2023-03-06T16:14:49.697Z,77.75
2023-03-06T16:17:18.751Z,77.82
2023-03-06T16:19:49.609Z,78.40
2023-03-06T16:22:18.078Z,78.13
2023-03-06T16:24:45.945Z,78.23
2023-03-06T16:27:19.253Z,78.46
2023-03-06T16:29:47.239Z,77.31
2023-03-06T16:32:15.628Z,78.57
2023-03-06T16:34:43.697Z,78.25
2023-03-06T16:37:14.362Z,79.04
2023-03-06T16:39:43.264Z,79.76
2023-03-06T16:42:11.435Z,79.98
2023-03-06T16:44:39.793Z,80.70
2023-03-06T16:47:11.675Z,81.78
2023-03-06T16:49:40.762Z,81.74
2023-03-06T16:52:11.350Z,81.99
2023-03-06T16:54:41.040Z,82.06
2023-03-06T16:57:15.082Z,82.34
2023-03-06T16:59:43.054Z,83.11
2023-03-06T17:02:11.575Z,82.37
2023-03-06T17:04:40.641Z,83.96
2023-03-06T17:07:08.605Z,84.27
2023-03-06T17:09:37.763Z,84.35
2023-03-06T17:12:07.880Z,85.12
2023-03-06T17:14:36.035Z,86.39
2023-03-06T17:17:04.527Z,86.73
2023-03-06T17:19:32.513Z,87.28
2023-03-06T17:22:00.494Z,86.68
2023-03-06T17:24:29.884Z,87.37
2023-03-06T17:26:57.962Z,86.73
2023-03-06T17:29:28.862Z,88.38
2023-03-06T17:31:56.818Z,88.22
2023-03-06T17:34:25.235Z,88.53
2023-03-06T17:36:53.599Z,88.97
2023-03-06T17:39:21.644Z,88.94
2023-03-06T17:41:49.978Z,89.12
2023-03-06T17:44:20.223Z,88.99
2023-03-06T17:46:50.009Z,89.39
2023-03-06T17:49:19.976Z,89.85
2023-03-06T17:51:47.887Z,89.79
2023-03-06T17:54:18.535Z,90.11
2023-03-06T17:56:47.296Z,90.17
2023-03-06T17:59:15.735Z,90.17
2023-03-06T18:01:45.492Z,90.17
2023-03-06T18:04:15.385Z,90.12
2023-03-06T18:06:43.752Z,90.60
2023-03-06T18:09:12.596Z,90.28
2023-03-06T18:11:41.408Z,90.47
2023-03-06T18:14:10.839Z,90.14
2023-03-06T18:16:39.017Z,90.07
2023-03-06T18:19:07.406Z,90.07
2023-03-06T18:21:37.293Z,90.35
2023-03-06T18:24:05.183Z,90.32
2023-03-06T18:26:33.093Z,90.58
2023-03-06T18:29:04.859Z,90.58
2023-03-06T18:31:35.846Z,90.67
2023-03-06T18:34:04.874Z,91.09
2023-03-06T18:36:34.064Z,91.46
2023-03-06T18:39:05.216Z,91.68
2023-03-06T18:41:33.167Z,91.82
2023-03-06T18:44:02.848Z,92.05
2023-03-06T18:46:33.691Z,92.27
2023-03-06T18:49:01.813Z,92.56
2023-03-06T18:51:30.256Z,92.79
2023-03-06T18:53:59.270Z,93.06
2023-03-06T18:56:29.477Z,93.36
2023-03-06T18:59:01.770Z,93.50
2023-03-06T19:01:31.438Z,93.64
2023-03-06T19:04:01.660Z,93.54
2023-03-06T19:06:30.794Z,93.72
2023-03-06T19:08:59.544Z,93.43
2023-03-06T19:11:32.307Z,93.71
2023-03-06T19:14:00.604Z,93.71
2023-03-06T19:16:30.499Z,93.51
2023-03-06T19:18:59.587Z,93.44
2023-03-06T19:21:29.447Z,93.66
2023-03-06T19:23:58.124Z,93.26
2023-03-06T19:26:27.419Z,93.11
2023-03-06T19:28:57.064Z,93.28
2023-03-06T19:31:26.071Z,93.06
2023-03-06T19:33:55.423Z,93.56
2023-03-06T19:36:27.423Z,94.05
2023-03-06T19:38:56.914Z,94.71
2023-03-06T19:41:25.319Z,94.98
2023-03-06T19:43:58.735Z,95.51
2023-03-06T19:46:27.445Z,95.09
2023-03-06T19:48:57.132Z,95.35
2023-03-06T19:51:26.548Z,95.47
2023-03-06T19:53:54.718Z,95.54
2023-03-06T19:56:27.763Z,95.17
2023-03-06T19:58:57.651Z,96.09
2023-03-06T20:01:28.540Z,95.80
2023-03-06T20:03:58.687Z,95.81
2023-03-06T20:06:34.015Z,95.72
2023-03-06T20:09:02.885Z,96.19
2023-03-06T20:11:31.214Z,96.04
2023-03-06T20:14:02.590Z,96.23
2023-03-06T20:16:31.255Z,95.94
2023-03-06T20:19:00.754Z,96.28
2023-03-06T20:21:30.404Z,96.65
2023-03-06T20:23:58.764Z,96.49
2023-03-06T20:26:29.046Z,97.17
2023-03-06T20:28:57.550Z,97.01
2023-03-06T20:31:29.749Z,96.76
2023-03-06T20:33:59.576Z,97.04
2023-03-06T20:36:30.570Z,96.68
2023-03-06T20:39:01.503Z,97.41
2023-03-06T20:41:34.796Z,97.54
2023-03-06T20:44:05.102Z,97.35
2023-03-06T20:46:35.154Z,97.39
2023-03-06T20:49:03.459Z,96.97
2023-03-06T20:51:33.852Z,96.73
2023-03-06T20:54:03.606Z,97.01
2023-03-06T20:56:33.797Z,97.17
2023-03-06T20:59:02.311Z,97.24
2023-03-06T21:01:32.356Z,98.03
2023-03-06T21:04:04.880Z,97.72
2023-03-06T21:06:34.172Z,97.96
2023-03-06T21:09:02.662Z,97.89
2023-03-06T21:11:32.100Z,98.79
2023-03-06T21:14:00.864Z,98.73
2023-03-06T21:16:30.420Z,99.12
2023-03-06T21:19:01.802Z,99.31
2023-03-06T21:21:33.331Z,99.67
2023-03-06T21:24:03.682Z,99.29
2023-03-06T21:26:34.816Z,98.96
2023-03-06T21:29:03.933Z,98.81
2023-03-06T21:31:33.801Z,98.83
2023-03-06T21:34:04.901Z,99.01
2023-03-06T21:36:35.846Z,98.64
2023-03-06T21:39:06.205Z,98.62
2023-03-06T21:41:34.803Z,98.92
2023-03-06T21:44:05.264Z,98.95
2023-03-06T21:46:34.472Z,99.74
2023-03-06T21:49:05.262Z,99.33
2023-03-06T21:51:34.451Z,99.99
2023-03-06T21:54:03.871Z,99.56
2023-03-06T21:56:33.871Z,99.32
2023-03-06T21:59:01.938Z,98.76
2023-03-06T22:01:30.808Z,99.22
2023-03-06T22:04:00.595Z,98.64
2023-03-06T22:06:31.679Z,99.01
2023-03-06T22:09:02.059Z,98.13
2023-03-06T22:11:31.335Z,97.89
2023-03-06T22:13:59.921Z,97.85
2023-03-06T22:16:29.230Z,97.78
2023-03-06T22:18:57.526Z,96.16
2023-03-06T22:21:29.432Z,96.26
2023-03-06T22:23:58.839Z,95.88
2023-03-06T22:26:29.115Z,95.56
2023-03-06T22:28:59.116Z,95.53
2023-03-06T22:31:29.117Z,95.95
2023-03-06T22:34:00.105Z,95.51
2023-03-06T22:36:31.379Z,95.50
2023-03-06T22:39:02.859Z,94.76
2023-03-06T22:41:32.223Z,95.19
2023-03-06T22:44:02.294Z,94.35
2023-03-06T22:46:30.758Z,95.22
2023-03-06T22:48:59.519Z,94.83
2023-03-06T22:51:30.957Z,94.09
2023-03-06T22:53:59.323Z,94.51
2023-03-06T22:56:27.315Z,94.48
2023-03-06T22:58:56.329Z,94.06
2023-03-06T23:01:26.467Z,94.32
2023-03-06T23:03:57.435Z,94.43
2023-03-06T23:06:27.326Z,94.24
2023-03-06T23:08:59.334Z,93.62
2023-03-06T23:11:28.877Z,94.00
2023-03-06T23:14:18.261Z,93.18
2023-03-06T23:17:05.120Z,93.86
2023-03-06T23:19:53.603Z,93.49
2023-03-06T23:22:40.240Z,93.33
2023-03-06T23:25:29.412Z,93.43
2023-03-06T23:27:57.401Z,93.04
2023-03-06T23:30:25.316Z,93.17
2023-03-06T23:32:54.175Z,93.46
2023-03-06T23:35:22.121Z,94.10
2023-03-06T23:37:50.553Z,93.94
2023-03-06T23:40:20.126Z,94.42
2023-03-06T23:42:49.489Z,94.78
2023-03-06T23:45:18.331Z,95.09
2023-03-06T23:47:46.285Z,95.19
2023-03-06T23:50:14.370Z,95.23
2023-03-06T23:52:43.902Z,95.06
2023-03-06T23:55:12.178Z,95.96
2023-03-06T23:57:41.120Z,95.70
